createdAt,value
2019-03-01T00:00:27.441Z,1006.90
2019-03-01T00:01:27.370Z,1006.92
2019-03-01T00:02:27.456Z,1006.85
2019-03-01T00:03:27.348Z,1006.84
2019-03-01T00:04:27.394Z,1006.82
2019-03-01T00:05:27.335Z,1006.79
2019-03-01T00:06:27.381Z,1006.77
2019-03-01T00:07:27.305Z,1006.76
2019-03-01T00:08:27.394Z,1006.71
2019-03-01T00:09:27.284Z,1006.69
2019-03-01T00:10:27.331Z,1006.70
2019-03-01T00:11:27.263Z,1006.71
2019-03-01T00:12:27.320Z,1006.70
2019-03-01T00:13:27.242Z,1006.74
2019-03-01T00:14:27.333Z,1006.73
2019-03-01T00:15:27.236Z,1006.76
2019-03-01T00:16:27.244Z,1006.73
2019-03-01T00:17:27.203Z,1006.74
2019-03-01T00:18:27.271Z,1006.73
2019-03-01T00:19:27.176Z,1006.68
2019-03-01T00:20:27.199Z,1006.70
2019-03-01T00:21:27.181Z,1006.69
2019-03-01T00:22:27.184Z,1006.67
2019-03-01T00:23:27.134Z,1006.66
2019-03-01T00:24:27.195Z,1006.71
2019-03-01T00:25:27.126Z,1006.69
2019-03-01T00:26:27.211Z,1006.66
2019-03-01T00:27:27.094Z,1006.66
2019-03-01T00:28:42.079Z,1006.66
2019-03-01T00:29:27.069Z,1006.62
2019-03-01T00:30:32.587Z,1006.62
2019-03-01T00:31:28.418Z,1006.54
2019-03-01T00:32:28.071Z,1006.53
2019-03-01T00:33:27.027Z,1006.57
2019-03-01T00:34:27.060Z,1006.55
2019-03-01T00:35:27.027Z,1006.49
2019-03-01T00:36:27.074Z,1006.50
2019-03-01T00:37:26.990Z,1006.52
2019-03-01T00:38:28.020Z,1006.48
2019-03-01T00:39:26.963Z,1006.50
2019-03-01T00:40:33.172Z,1006.52
2019-03-01T00:41:26.940Z,1006.51
2019-03-01T00:42:27.011Z,1006.53
2019-03-01T00:43:26.919Z,1006.47
2019-03-01T00:44:27.031Z,1006.43
2019-03-01T00:45:26.917Z,1006.46
2019-03-01T00:46:28.197Z,1006.46
2019-03-01T00:47:27.541Z,1006.48
2019-03-01T00:48:26.949Z,1006.45
2019-03-01T00:49:26.899Z,1006.46
2019-03-01T00:50:26.905Z,1006.44
2019-03-01T00:51:26.891Z,1006.48
2019-03-01T00:52:27.902Z,1006.45
2019-03-01T00:53:26.822Z,1006.41
2019-03-01T00:54:26.910Z,1006.40
2019-03-01T00:55:26.794Z,1006.45
2019-03-01T00:56:26.831Z,1006.43
2019-03-01T00:57:26.809Z,1006.40
2019-03-01T00:58:26.813Z,1006.39
2019-03-01T00:59:26.751Z,1006.41
2019-03-01T01:00:26.828Z,1006.41
2019-03-01T01:01:26.737Z,1006.45
2019-03-01T01:02:26.738Z,1006.41
2019-03-01T01:03:26.702Z,1006.42
2019-03-01T01:04:26.755Z,1006.42
2019-03-01T01:05:26.680Z,1006.35
2019-03-01T01:06:26.799Z,1006.43
2019-03-01T01:07:26.658Z,1006.42
2019-03-01T01:08:26.680Z,1006.36
2019-03-01T01:09:26.636Z,1006.39
2019-03-01T01:10:26.691Z,1006.36
2019-03-01T01:11:26.625Z,1006.34
2019-03-01T01:12:26.709Z,1006.35
2019-03-01T01:13:26.592Z,1006.36
2019-03-01T01:14:33.581Z,1006.40
2019-03-01T01:15:26.582Z,1006.34
2019-03-01T01:16:28.608Z,1006.34
2019-03-01T01:17:26.549Z,1006.36
2019-03-01T01:18:27.568Z,1006.36
2019-03-01T01:19:26.530Z,1006.29
2019-03-01T01:20:26.554Z,1006.30
2019-03-01T01:21:26.519Z,1006.32
2019-03-01T01:22:26.569Z,1006.31
2019-03-01T01:23:26.485Z,1006.27
2019-03-01T01:24:27.503Z,1006.32
2019-03-01T01:25:26.465Z,1006.27
2019-03-01T01:26:26.524Z,1006.27
2019-03-01T01:27:26.439Z,1006.24
2019-03-01T01:28:26.508Z,1006.22
2019-03-01T01:29:26.445Z,1006.25
2019-03-01T01:30:26.521Z,1006.22
2019-03-01T01:31:26.412Z,1006.20
2019-03-01T01:32:26.435Z,1006.14
2019-03-01T01:33:26.376Z,1006.16
2019-03-01T01:34:26.448Z,1006.13
2019-03-01T01:35:26.351Z,1006.07
2019-03-01T01:36:26.397Z,1006.13
2019-03-01T01:37:26.334Z,1006.08
2019-03-01T01:38:26.413Z,1006.08
2019-03-01T01:39:26.310Z,1006.07
2019-03-01T01:40:26.384Z,1006.15
2019-03-01T01:41:26.301Z,1006.13
2019-03-01T01:42:26.299Z,1006.11
2019-03-01T01:43:26.265Z,1006.13
2019-03-01T01:44:26.310Z,1006.12
2019-03-01T01:45:26.247Z,1006.11
2019-03-01T01:46:26.352Z,1006.07
2019-03-01T01:47:26.224Z,1006.05
2019-03-01T01:48:26.237Z,1006.02
2019-03-01T01:49:26.202Z,1006.02
2019-03-01T01:50:26.250Z,1006.04
2019-03-01T01:51:26.185Z,1006.03
2019-03-01T01:52:26.292Z,1006.04
2019-03-01T01:53:26.161Z,1006.01
2019-03-01T01:54:26.172Z,1006.02
2019-03-01T01:55:26.134Z,1006.06
2019-03-01T01:56:26.186Z,1006.02
2019-03-01T01:57:26.129Z,1006.00
2019-03-01T01:58:26.200Z,1006.03
2019-03-01T01:59:26.091Z,1006.00
2019-03-01T02:00:33.075Z,1005.93
2019-03-01T02:01:26.070Z,1006.02
2019-03-01T02:02:26.159Z,1006.00
2019-03-01T02:03:26.049Z,1006.03
2019-03-01T02:04:27.063Z,1005.99
2019-03-01T02:05:26.028Z,1005.99
2019-03-01T02:06:26.050Z,1006.03
2019-03-01T02:07:26.019Z,1005.98
2019-03-01T02:08:26.064Z,1006.02
2019-03-01T02:09:26.000Z,1006.00
2019-03-01T02:10:26.079Z,1006.00
2019-03-01T02:11:25.962Z,1005.99
2019-03-01T02:12:26.019Z,1005.99
2019-03-01T02:13:25.945Z,1006.01
2019-03-01T02:14:26.002Z,1006.00
2019-03-01T02:15:25.921Z,1005.98
2019-03-01T02:16:26.016Z,1005.95
2019-03-01T02:17:25.916Z,1005.98
2019-03-01T02:18:25.926Z,1006.01
2019-03-01T02:19:25.876Z,1005.96
2019-03-01T02:20:25.941Z,1005.96
2019-03-01T02:21:25.855Z,1005.92
2019-03-01T02:22:25.880Z,1005.97
2019-03-01T02:23:25.836Z,1005.97
2019-03-01T02:24:25.866Z,1005.97
2019-03-01T02:25:25.816Z,1005.95
2019-03-01T02:26:25.882Z,1005.96
2019-03-01T02:27:25.807Z,1005.97
2019-03-01T02:28:25.892Z,1005.97
2019-03-01T02:29:25.771Z,1005.95
2019-03-01T02:30:25.806Z,1005.99
2019-03-01T02:31:25.749Z,1005.96
2019-03-01T02:32:25.848Z,1005.92
2019-03-01T02:33:25.731Z,1005.92
2019-03-01T02:34:25.734Z,1005.91
2019-03-01T02:35:25.730Z,1005.87
2019-03-01T02:36:25.744Z,1005.86
2019-03-01T02:37:25.703Z,1005.84
2019-03-01T02:38:25.767Z,1005.86
2019-03-01T02:39:25.668Z,1005.86
2019-03-01T02:40:25.668Z,1005.83
2019-03-01T02:41:25.643Z,1005.83
2019-03-01T02:42:25.714Z,1005.84
2019-03-01T02:43:25.620Z,1005.85
2019-03-01T02:44:25.727Z,1005.83
2019-03-01T02:45:25.601Z,1005.83
2019-03-01T02:46:32.570Z,1005.82
2019-03-01T02:47:25.581Z,1005.88
2019-03-01T02:48:27.599Z,1005.80
2019-03-01T02:49:25.558Z,1005.76
2019-03-01T02:50:33.113Z,1005.78
2019-03-01T02:51:25.538Z,1005.74
2019-03-01T02:52:25.549Z,1005.77
2019-03-01T02:53:25.531Z,1005.72
2019-03-01T02:54:25.570Z,1005.74
2019-03-01T02:55:25.491Z,1005.73
2019-03-01T02:56:25.576Z,1005.75
2019-03-01T02:57:25.476Z,1005.73
2019-03-01T02:58:25.515Z,1005.69
2019-03-01T02:59:25.450Z,1005.70
2019-03-01T03:00:25.500Z,1005.71
2019-03-01T03:01:25.427Z,1005.72
2019-03-01T03:02:25.519Z,1005.73
2019-03-01T03:03:25.420Z,1005.73
2019-03-01T03:04:25.437Z,1005.73
2019-03-01T03:05:25.387Z,1005.69
2019-03-01T03:06:25.437Z,1005.73
2019-03-01T03:07:25.367Z,1005.76
2019-03-01T03:08:25.382Z,1005.75
2019-03-01T03:09:25.349Z,1005.78
2019-03-01T03:10:25.365Z,1005.74
2019-03-01T03:11:25.321Z,1005.73
2019-03-01T03:12:25.376Z,1005.73
2019-03-01T03:13:25.317Z,1005.73
2019-03-01T03:14:25.411Z,1005.77
2019-03-01T03:15:25.297Z,1005.68
2019-03-01T03:16:25.303Z,1005.72
2019-03-01T03:17:25.258Z,1005.66
2019-03-01T03:18:25.346Z,1005.74
2019-03-01T03:19:25.241Z,1005.66
2019-03-01T03:20:25.334Z,1005.68
2019-03-01T03:21:25.224Z,1005.69
2019-03-01T03:22:25.246Z,1005.64
2019-03-01T03:23:25.205Z,1005.68
2019-03-01T03:24:25.257Z,1005.62
2019-03-01T03:25:25.170Z,1005.67
2019-03-01T03:26:25.272Z,1005.66
2019-03-01T03:27:25.147Z,1005.68
2019-03-01T03:28:25.214Z,1005.66
2019-03-01T03:29:25.153Z,1005.68
2019-03-01T03:30:25.199Z,1005.67
2019-03-01T03:31:25.106Z,1005.70
2019-03-01T03:32:25.217Z,1005.66
2019-03-01T03:33:25.146Z,1005.68
2019-03-01T03:34:40.072Z,1005.74
2019-03-01T03:35:25.060Z,1005.72
2019-03-01T03:36:27.082Z,1005.66
2019-03-01T03:37:25.043Z,1005.66
2019-03-01T03:38:25.079Z,1005.69
2019-03-01T03:39:25.019Z,1005.67
2019-03-01T03:40:25.066Z,1005.67
2019-03-01T03:41:24.996Z,1005.69
2019-03-01T03:42:25.077Z,1005.66
2019-03-01T03:43:24.981Z,1005.68
2019-03-01T03:44:25.020Z,1005.64
2019-03-01T03:45:24.951Z,1005.64
2019-03-01T03:46:25.009Z,1005.70
2019-03-01T03:47:24.931Z,1005.60
2019-03-01T03:48:25.016Z,1005.62
2019-03-01T03:49:24.928Z,1005.63
2019-03-01T03:50:24.928Z,1005.63
2019-03-01T03:51:24.888Z,1005.59
2019-03-01T03:52:24.940Z,1005.62
2019-03-01T03:53:24.865Z,1005.62
2019-03-01T03:54:24.982Z,1005.61
2019-03-01T03:55:24.847Z,1005.65
2019-03-01T03:56:24.865Z,1005.61
2019-03-01T03:57:24.876Z,1005.58
2019-03-01T03:58:24.879Z,1005.63
2019-03-01T03:59:24.821Z,1005.64
2019-03-01T04:00:24.897Z,1005.62
2019-03-01T04:01:24.780Z,1005.62
2019-03-01T04:02:24.804Z,1005.64
2019-03-01T04:03:24.755Z,1005.67
2019-03-01T04:04:24.867Z,1005.63
2019-03-01T04:05:24.741Z,1005.63
2019-03-01T04:06:24.831Z,1005.61
2019-03-01T04:07:24.742Z,1005.62
2019-03-01T04:08:24.742Z,1005.66
2019-03-01T04:09:24.703Z,1005.63
2019-03-01T04:10:24.761Z,1005.64
2019-03-01T04:11:24.671Z,1005.70
2019-03-01T04:12:24.773Z,1005.65
2019-03-01T04:13:24.646Z,1005.68
2019-03-01T04:14:24.727Z,1005.63
2019-03-01T04:15:24.627Z,1005.66
2019-03-01T04:16:24.692Z,1005.65
2019-03-01T04:17:24.610Z,1005.70
2019-03-01T04:18:24.709Z,1005.64
2019-03-01T04:19:24.602Z,1005.62
2019-03-01T04:20:24.622Z,1005.67
2019-03-01T04:21:24.558Z,1005.62
2019-03-01T04:22:24.639Z,1005.61
2019-03-01T04:23:24.542Z,1005.62
2019-03-01T04:24:24.574Z,1005.63
2019-03-01T04:25:24.514Z,1005.64
2019-03-01T04:26:24.556Z,1005.59
2019-03-01T04:27:24.765Z,1005.62
2019-03-01T04:28:24.783Z,1005.59
2019-03-01T04:29:24.496Z,1005.57
2019-03-01T04:30:24.481Z,1005.57
2019-03-01T04:31:24.505Z,1005.62
2019-03-01T04:32:24.496Z,1005.55
2019-03-01T04:33:24.428Z,1005.59
2019-03-01T04:34:24.540Z,1005.53
2019-03-01T04:35:24.409Z,1005.53
2019-03-01T04:36:24.419Z,1005.54
2019-03-01T04:37:24.384Z,1005.54
2019-03-01T04:38:24.435Z,1005.50
2019-03-01T04:39:24.467Z,1005.48
2019-03-01T04:40:24.446Z,1005.53
2019-03-01T04:41:24.343Z,1005.52
2019-03-01T04:42:24.357Z,1005.56
2019-03-01T04:43:24.319Z,1005.50
2019-03-01T04:44:24.370Z,1005.56
2019-03-01T04:45:24.315Z,1005.54
2019-03-01T04:46:24.385Z,1005.54
2019-03-01T04:47:24.276Z,1005.54
2019-03-01T04:48:24.296Z,1005.53
2019-03-01T04:49:24.253Z,1005.53
2019-03-01T04:50:24.342Z,1005.49
2019-03-01T04:51:24.232Z,1005.52
2019-03-01T04:52:24.325Z,1005.53
2019-03-01T04:53:24.213Z,1005.55
2019-03-01T04:54:24.239Z,1005.54
2019-03-01T04:55:24.200Z,1005.55
2019-03-01T04:56:24.248Z,1005.57
2019-03-01T04:57:24.170Z,1005.55
2019-03-01T04:58:24.261Z,1005.53
2019-03-01T04:59:24.147Z,1005.56
2019-03-01T05:00:24.213Z,1005.52
2019-03-01T05:01:24.123Z,1005.56
2019-03-01T05:02:24.188Z,1005.52
2019-03-01T05:03:24.101Z,1005.54
2019-03-01T05:04:24.200Z,1005.55
2019-03-01T05:05:24.099Z,1005.53
2019-03-01T05:06:24.113Z,1005.55
2019-03-01T05:07:24.058Z,1005.56
2019-03-01T05:08:24.127Z,1005.54
2019-03-01T05:09:24.037Z,1005.52
2019-03-01T05:10:24.068Z,1005.52
2019-03-01T05:11:24.016Z,1005.51
2019-03-01T05:12:24.051Z,1005.55
2019-03-01T05:13:23.992Z,1005.54
2019-03-01T05:14:24.065Z,1005.52
2019-03-01T05:15:23.987Z,1005.54
2019-03-01T05:16:23.978Z,1005.59
2019-03-01T05:17:23.948Z,1005.60
2019-03-01T05:18:23.987Z,1005.55
2019-03-01T05:19:23.925Z,1005.59
2019-03-01T05:20:24.032Z,1005.59
2019-03-01T05:21:23.906Z,1005.55
2019-03-01T05:22:23.916Z,1005.57
2019-03-01T05:23:23.884Z,1005.54
2019-03-01T05:24:23.926Z,1005.56
2019-03-01T05:25:23.878Z,1005.59
2019-03-01T05:26:23.940Z,1005.59
2019-03-01T05:27:23.841Z,1005.60
2019-03-01T05:28:23.851Z,1005.63
2019-03-01T05:29:23.817Z,1005.57
2019-03-01T05:30:23.897Z,1005.63
2019-03-01T05:31:23.796Z,1005.56
2019-03-01T05:32:23.879Z,1005.66
2019-03-01T05:33:23.778Z,1005.69
2019-03-01T05:34:23.790Z,1005.67
2019-03-01T05:35:23.768Z,1005.71
2019-03-01T05:36:23.804Z,1005.70
2019-03-01T05:37:23.736Z,1005.71
2019-03-01T05:38:23.825Z,1005.70
2019-03-01T05:39:23.709Z,1005.70
2019-03-01T05:40:23.761Z,1005.69
2019-03-01T05:41:23.688Z,1005.69
2019-03-01T05:42:23.743Z,1005.68
2019-03-01T05:43:23.665Z,1005.65
2019-03-01T05:44:23.772Z,1005.69
2019-03-01T05:45:23.658Z,1005.67
2019-03-01T05:46:23.671Z,1005.66
2019-03-01T05:47:23.628Z,1005.59
2019-03-01T05:48:23.681Z,1005.65
2019-03-01T05:49:23.601Z,1005.64
2019-03-01T05:50:23.725Z,1005.63
2019-03-01T05:51:23.588Z,1005.65
2019-03-01T05:52:30.573Z,1005.70
2019-03-01T05:53:23.560Z,1005.70
2019-03-01T05:54:25.567Z,1005.70
2019-03-01T05:55:23.541Z,1005.69
2019-03-01T05:56:23.563Z,1005.69
2019-03-01T05:57:23.522Z,1005.68
2019-03-01T05:58:23.549Z,1005.70
2019-03-01T05:59:23.493Z,1005.68
2019-03-01T06:00:23.560Z,1005.76
2019-03-01T06:01:23.501Z,1005.70
2019-03-01T06:02:23.576Z,1005.69
2019-03-01T06:03:23.458Z,1005.70
2019-03-01T06:04:23.485Z,1005.72
2019-03-01T06:05:24.952Z,1005.75
2019-03-01T06:06:23.531Z,1005.77
2019-03-01T06:07:23.407Z,1005.70
2019-03-01T06:08:23.410Z,1005.72
2019-03-01T06:09:23.386Z,1005.75
2019-03-01T06:10:23.424Z,1005.78
2019-03-01T06:11:23.382Z,1005.78
2019-03-01T06:12:23.440Z,1005.79
2019-03-01T06:13:23.344Z,1005.83
2019-03-01T06:14:23.350Z,1005.81
2019-03-01T06:15:23.321Z,1005.83
2019-03-01T06:16:23.392Z,1005.82
2019-03-01T06:17:23.299Z,1005.83
2019-03-01T06:18:23.378Z,1005.79
2019-03-01T06:19:23.280Z,1005.77
2019-03-01T06:20:23.288Z,1005.80
2019-03-01T06:21:23.275Z,1005.78
2019-03-01T06:22:23.300Z,1005.80
2019-03-01T06:23:23.240Z,1005.85
2019-03-01T06:24:23.314Z,1005.83
2019-03-01T06:25:23.215Z,1005.85
2019-03-01T06:26:23.258Z,1005.86
2019-03-01T06:27:23.191Z,1005.87
2019-03-01T06:28:23.241Z,1005.90
2019-03-01T06:29:23.170Z,1005.88
2019-03-01T06:30:23.253Z,1005.88
2019-03-01T06:31:23.149Z,1005.88
2019-03-01T06:32:23.198Z,1005.87
2019-03-01T06:33:23.134Z,1005.85
2019-03-01T06:34:23.178Z,1005.87
2019-03-01T06:35:23.104Z,1005.90
2019-03-01T06:36:23.196Z,1005.89
2019-03-01T06:37:23.098Z,1005.87
2019-03-01T06:38:30.066Z,1005.83
2019-03-01T06:39:23.061Z,1005.92
2019-03-01T06:40:23.120Z,1005.93
2019-03-01T06:41:23.040Z,1005.94
2019-03-01T06:42:23.061Z,1005.94
2019-03-01T06:43:23.018Z,1005.97
2019-03-01T06:44:23.042Z,1005.98
2019-03-01T06:45:22.997Z,1005.99
2019-03-01T06:46:23.057Z,1006.02
2019-03-01T06:47:22.988Z,1006.03
2019-03-01T06:48:29.726Z,1006.06
2019-03-01T06:49:23.005Z,1006.06
2019-03-01T06:50:22.981Z,1006.11
2019-03-01T06:51:28.824Z,1006.08
2019-03-01T06:52:24.050Z,1006.12
2019-03-01T06:53:22.937Z,1006.14
2019-03-01T06:54:25.718Z,1006.20
2019-03-01T06:55:22.914Z,1006.19
2019-03-01T06:56:22.918Z,1006.17
2019-03-01T06:57:22.910Z,1006.18
2019-03-01T06:58:22.940Z,1006.22
2019-03-01T06:59:22.849Z,1006.23
2019-03-01T07:00:22.948Z,1006.21
2019-03-01T07:01:22.847Z,1006.25
2019-03-01T07:02:22.917Z,1006.26
2019-03-01T07:03:22.804Z,1006.25
2019-03-01T07:04:22.922Z,1006.26
2019-03-01T07:05:22.780Z,1006.25
2019-03-01T07:06:23.807Z,1006.33
2019-03-01T07:07:22.774Z,1006.28
2019-03-01T07:08:22.797Z,1006.31
2019-03-01T07:09:22.739Z,1006.34
2019-03-01T07:10:22.813Z,1006.37
2019-03-01T07:11:22.723Z,1006.42
2019-03-01T07:12:22.754Z,1006.45
2019-03-01T07:13:22.692Z,1006.41
2019-03-01T07:14:22.735Z,1006.42
2019-03-01T07:15:22.672Z,1006.43
2019-03-01T07:16:22.750Z,1006.47
2019-03-01T07:17:22.669Z,1006.43
2019-03-01T07:18:22.663Z,1006.49
2019-03-01T07:19:22.634Z,1006.53
2019-03-01T07:20:22.681Z,1006.51
2019-03-01T07:21:22.611Z,1006.50
2019-03-01T07:22:22.753Z,1006.53
2019-03-01T07:23:22.584Z,1006.61
2019-03-01T07:24:38.576Z,1006.56
2019-03-01T07:25:22.562Z,1006.58
2019-03-01T07:26:29.075Z,1006.57
2019-03-01T07:27:22.554Z,1006.55
2019-03-01T07:28:23.548Z,1006.56
2019-03-01T07:29:22.526Z,1006.63
2019-03-01T07:30:22.539Z,1006.67
2019-03-01T07:31:22.498Z,1006.72
2019-03-01T07:32:22.588Z,1006.70
2019-03-01T07:33:22.474Z,1006.71
2019-03-01T07:34:22.565Z,1006.74
2019-03-01T07:35:22.450Z,1006.76
2019-03-01T07:36:22.477Z,1006.76
2019-03-01T07:37:22.430Z,1006.82
2019-03-01T07:38:22.523Z,1006.84
2019-03-01T07:39:22.408Z,1006.83
2019-03-01T07:40:22.509Z,1006.86
2019-03-01T07:41:22.391Z,1006.93
2019-03-01T07:42:22.455Z,1006.89
2019-03-01T07:43:22.382Z,1006.93
2019-03-01T07:44:22.434Z,1006.94
2019-03-01T07:45:22.343Z,1006.91
2019-03-01T07:46:22.745Z,1006.97
2019-03-01T07:47:22.327Z,1006.92
2019-03-01T07:48:22.390Z,1006.95
2019-03-01T07:49:22.303Z,1006.94
2019-03-01T07:50:22.370Z,1007.02
2019-03-01T07:51:22.281Z,1007.02
2019-03-01T07:52:22.280Z,1007.08
2019-03-01T07:53:22.273Z,1007.07
2019-03-01T07:54:22.544Z,1007.06
2019-03-01T07:55:24.994Z,1007.09
2019-03-01T07:56:23.334Z,1007.09
2019-03-01T07:57:22.211Z,1007.06
2019-03-01T07:58:25.622Z,1007.22
2019-03-01T07:59:23.919Z,1007.18
2019-03-01T08:00:22.241Z,1007.21
2019-03-01T08:01:22.168Z,1007.26
2019-03-01T08:02:22.260Z,1007.28
2019-03-01T08:03:22.159Z,1007.28
2019-03-01T08:04:23.808Z,1007.27
2019-03-01T08:05:23.122Z,1007.39
2019-03-01T08:06:22.171Z,1007.34
2019-03-01T08:07:23.641Z,1007.30
2019-03-01T08:08:25.595Z,1007.35
2019-03-01T08:09:22.080Z,1007.39
2019-03-01T08:10:38.072Z,1007.39
2019-03-01T08:11:22.060Z,1007.36
2019-03-01T08:12:30.897Z,1007.33
2019-03-01T08:13:22.050Z,1007.35
2019-03-01T08:14:24.570Z,1007.36
2019-03-01T08:15:23.020Z,1007.37
2019-03-01T08:16:22.042Z,1007.44
2019-03-01T08:17:21.996Z,1007.43
2019-03-01T08:18:22.082Z,1007.44
2019-03-01T08:19:23.487Z,1007.49
2019-03-01T08:20:22.066Z,1007.51
2019-03-01T08:21:21.954Z,1007.51
2019-03-01T08:22:24.903Z,1007.55
2019-03-01T08:23:21.943Z,1007.55
2019-03-01T08:24:21.987Z,1007.55
2019-03-01T08:25:23.383Z,1007.62
2019-03-01T08:26:22.003Z,1007.67
2019-03-01T08:27:21.885Z,1007.73
2019-03-01T08:28:22.936Z,1007.66
2019-03-01T08:29:21.860Z,1007.73
2019-03-01T08:30:21.928Z,1007.71
2019-03-01T08:31:22.292Z,1007.76
2019-03-01T08:32:21.942Z,1007.77
2019-03-01T08:33:21.825Z,1007.72
2019-03-01T08:34:21.884Z,1007.75
2019-03-01T08:35:21.793Z,1007.78
2019-03-01T08:36:21.865Z,1007.80
2019-03-01T08:37:21.775Z,1007.82
2019-03-01T08:38:21.881Z,1007.82
2019-03-01T08:39:21.766Z,1007.85
2019-03-01T08:40:21.798Z,1007.84
2019-03-01T08:41:24.933Z,1007.85
2019-03-01T08:42:21.804Z,1007.78
2019-03-01T08:43:21.713Z,1007.85
2019-03-01T08:44:23.132Z,1007.90
2019-03-01T08:45:21.691Z,1007.91
2019-03-01T08:46:21.730Z,1007.95
2019-03-01T08:47:24.531Z,1007.92
2019-03-01T08:48:21.743Z,1007.98
2019-03-01T08:49:21.662Z,1007.94
2019-03-01T08:50:21.657Z,1007.97
2019-03-01T08:51:22.796Z,1008.03
2019-03-01T08:52:21.771Z,1008.04
2019-03-01T08:53:21.600Z,1008.04
2019-03-01T08:54:26.487Z,1008.08
2019-03-01T08:55:21.578Z,1008.04
2019-03-01T08:56:29.582Z,1008.08
2019-03-01T08:57:22.665Z,1008.09
2019-03-01T08:58:23.657Z,1008.17
2019-03-01T08:59:21.547Z,1008.12
2019-03-01T09:00:23.110Z,1008.16
2019-03-01T09:01:21.524Z,1008.19
2019-03-01T09:02:21.532Z,1008.21
2019-03-01T09:03:22.980Z,1008.17
2019-03-01T09:04:21.711Z,1008.22
2019-03-01T09:05:21.504Z,1008.19
2019-03-01T09:06:21.558Z,1008.19
2019-03-01T09:07:21.450Z,1008.24
2019-03-01T09:08:21.471Z,1008.19
2019-03-01T09:09:21.986Z,1008.26
2019-03-01T09:10:21.484Z,1008.30
2019-03-01T09:11:21.408Z,1008.28
2019-03-01T09:12:21.498Z,1008.28
2019-03-01T09:13:21.384Z,1008.27
2019-03-01T09:14:22.770Z,1008.34
2019-03-01T09:15:21.362Z,1008.32
2019-03-01T09:16:21.423Z,1008.37
2019-03-01T09:17:21.340Z,1008.40
2019-03-01T09:18:21.436Z,1008.35
2019-03-01T09:19:22.280Z,1008.42
2019-03-01T09:20:21.353Z,1008.44
2019-03-01T09:21:21.298Z,1008.42
2019-03-01T09:22:24.130Z,1008.43
2019-03-01T09:23:26.451Z,1008.43
2019-03-01T09:24:22.326Z,1008.40
2019-03-01T09:25:21.261Z,1008.42
2019-03-01T09:26:21.289Z,1008.48
2019-03-01T09:27:22.726Z,1008.42
2019-03-01T09:28:21.302Z,1008.41
2019-03-01T09:29:21.245Z,1008.38
2019-03-01T09:30:21.315Z,1008.39
2019-03-01T09:31:21.193Z,1008.42
2019-03-01T09:32:21.329Z,1008.40
2019-03-01T09:33:22.825Z,1008.43
2019-03-01T09:34:21.240Z,1008.51
2019-03-01T09:35:21.160Z,1008.50
2019-03-01T09:36:21.522Z,1008.55
2019-03-01T09:37:21.124Z,1008.59
2019-03-01T09:38:21.165Z,1008.56
2019-03-01T09:39:21.126Z,1008.60
2019-03-01T09:40:25.578Z,1008.58
2019-03-01T09:41:21.106Z,1008.61
2019-03-01T09:42:29.079Z,1008.67
2019-03-01T09:43:21.081Z,1008.63
2019-03-01T09:44:27.660Z,1008.64
2019-03-01T09:45:21.051Z,1008.65
2019-03-01T09:46:24.819Z,1008.62
2019-03-01T09:47:22.019Z,1008.63
2019-03-01T09:48:21.045Z,1008.63
2019-03-01T09:49:21.397Z,1008.61
2019-03-01T09:50:21.080Z,1008.63
2019-03-01T09:51:20.971Z,1008.64
2019-03-01T09:52:23.611Z,1008.56
2019-03-01T09:53:20.965Z,1008.57
2019-03-01T09:54:20.967Z,1008.57
2019-03-01T09:55:20.947Z,1008.58
2019-03-01T09:56:20.985Z,1008.62
2019-03-01T09:57:20.906Z,1008.64
2019-03-01T09:58:20.999Z,1008.64
2019-03-01T09:59:20.885Z,1008.63
2019-03-01T10:00:20.936Z,1008.71
2019-03-01T10:01:20.864Z,1008.73
2019-03-01T10:02:20.919Z,1008.76
2019-03-01T10:03:20.842Z,1008.72
2019-03-01T10:04:20.933Z,1008.68
2019-03-01T10:05:20.839Z,1008.72
2019-03-01T10:06:20.848Z,1008.68
2019-03-01T10:07:20.801Z,1008.71
2019-03-01T10:08:20.859Z,1008.75
2019-03-01T10:09:20.775Z,1008.73
2019-03-01T10:10:20.904Z,1008.73
2019-03-01T10:11:20.753Z,1008.82
2019-03-01T10:12:20.784Z,1008.76
2019-03-01T10:13:20.735Z,1008.81
2019-03-01T10:14:20.797Z,1008.84
2019-03-01T10:15:20.713Z,1008.81
2019-03-01T10:16:20.743Z,1008.80
2019-03-01T10:17:20.693Z,1008.82
2019-03-01T10:18:20.722Z,1008.86
2019-03-01T10:19:20.671Z,1008.78
2019-03-01T10:20:20.736Z,1008.80
2019-03-01T10:21:20.662Z,1008.70
2019-03-01T10:22:20.652Z,1008.79
2019-03-01T10:23:20.623Z,1008.77
2019-03-01T10:24:20.664Z,1008.75
2019-03-01T10:25:20.601Z,1008.74
2019-03-01T10:26:21.629Z,1008.74
2019-03-01T10:27:20.582Z,1008.78
2019-03-01T10:28:28.575Z,1008.80
2019-03-01T10:29:20.561Z,1008.83
2019-03-01T10:30:22.652Z,1008.84
2019-03-01T10:31:20.561Z,1008.79
2019-03-01T10:32:22.561Z,1008.85
2019-03-01T10:33:20.515Z,1008.84
2019-03-01T10:34:20.524Z,1008.88
2019-03-01T10:35:20.494Z,1008.92
2019-03-01T10:36:20.568Z,1008.95
2019-03-01T10:37:20.470Z,1008.99
2019-03-01T10:38:20.552Z,1009.01
2019-03-01T10:39:20.453Z,1009.12
2019-03-01T10:40:20.463Z,1009.06
2019-03-01T10:41:20.446Z,1009.10
2019-03-01T10:42:20.477Z,1009.09
2019-03-01T10:43:20.404Z,1009.19
2019-03-01T10:44:20.491Z,1009.17
2019-03-01T10:45:20.383Z,1009.19
2019-03-01T10:46:20.433Z,1009.28
2019-03-01T10:47:20.363Z,1009.24
2019-03-01T10:48:20.420Z,1009.26
2019-03-01T10:49:20.339Z,1009.29
2019-03-01T10:50:20.430Z,1009.31
2019-03-01T10:51:20.332Z,1009.26
2019-03-01T10:52:20.360Z,1009.28
2019-03-01T10:53:20.297Z,1009.31
2019-03-01T10:54:20.357Z,1009.37
2019-03-01T10:55:20.276Z,1009.35
2019-03-01T10:56:20.297Z,1009.40
2019-03-01T10:57:20.255Z,1009.41
2019-03-01T10:58:20.280Z,1009.41
2019-03-01T10:59:20.232Z,1009.46
2019-03-01T11:00:20.303Z,1009.47
2019-03-01T11:01:20.225Z,1009.45
2019-03-01T11:02:20.306Z,1009.51
2019-03-01T11:03:20.185Z,1009.52
2019-03-01T11:04:20.218Z,1009.56
2019-03-01T11:05:20.166Z,1009.55
2019-03-01T11:06:20.266Z,1009.49
2019-03-01T11:07:20.142Z,1009.52
2019-03-01T11:08:20.245Z,1009.52
2019-03-01T11:09:20.128Z,1009.57
2019-03-01T11:10:20.156Z,1009.55
2019-03-01T11:11:20.126Z,1009.57
2019-03-01T11:12:21.195Z,1009.57
2019-03-01T11:13:20.081Z,1009.59
2019-03-01T11:14:28.077Z,1009.61
2019-03-01T11:15:20.057Z,1009.61
2019-03-01T11:16:20.096Z,1009.64
2019-03-01T11:17:20.046Z,1009.64
2019-03-01T11:18:22.054Z,1009.63
2019-03-01T11:19:20.013Z,1009.66
2019-03-01T11:20:20.020Z,1009.64
2019-03-01T11:21:19.991Z,1009.60
2019-03-01T11:22:20.064Z,1009.63
2019-03-01T11:23:19.969Z,1009.64
2019-03-01T11:24:20.048Z,1009.66
2019-03-01T11:25:19.947Z,1009.65
2019-03-01T11:26:19.960Z,1009.65
2019-03-01T11:27:19.940Z,1009.70
2019-03-01T11:28:19.975Z,1009.73
2019-03-01T11:29:19.907Z,1009.70
2019-03-01T11:30:19.987Z,1009.77
2019-03-01T11:31:19.883Z,1009.80
2019-03-01T11:32:19.929Z,1009.77
2019-03-01T11:33:19.862Z,1009.80
2019-03-01T11:34:19.910Z,1009.79
2019-03-01T11:35:19.840Z,1009.80
2019-03-01T11:36:19.924Z,1009.83
2019-03-01T11:37:19.834Z,1009.81
2019-03-01T11:38:19.836Z,1009.87
2019-03-01T11:39:19.800Z,1009.87
2019-03-01T11:40:19.849Z,1009.81
2019-03-01T11:41:19.775Z,1009.82
2019-03-01T11:42:19.792Z,1009.88
2019-03-01T11:43:19.762Z,1009.77
2019-03-01T11:44:19.775Z,1009.81
2019-03-01T11:45:19.729Z,1009.79
2019-03-01T11:46:19.789Z,1009.82
2019-03-01T11:47:19.723Z,1009.83
2019-03-01T11:48:19.803Z,1009.89
2019-03-01T11:49:19.685Z,1009.91
2019-03-01T11:50:19.713Z,1009.89
2019-03-01T11:51:19.669Z,1009.93
2019-03-01T11:52:19.758Z,1009.88
2019-03-01T11:53:19.644Z,1009.93
2019-03-01T11:54:19.740Z,1009.93
2019-03-01T11:55:19.637Z,1009.95
2019-03-01T11:56:19.659Z,1009.96
2019-03-01T11:57:19.620Z,1009.98
2019-03-01T11:58:20.689Z,1009.99
2019-03-01T11:59:19.579Z,1010.05
2019-03-01T12:00:21.626Z,1010.02
2019-03-01T12:01:19.557Z,1010.08
2019-03-01T12:02:20.648Z,1010.04
2019-03-01T12:03:19.534Z,1010.08
2019-03-01T12:04:20.629Z,1010.11
2019-03-01T12:05:19.517Z,1010.09